createdAt,value
2018-05-02T00:02:29.609Z,99.90
2018-05-02T00:05:05.123Z,99.90
2018-05-02T00:07:39.756Z,99.90
2018-05-02T00:10:14.353Z,99.90
2018-05-02T00:12:49.110Z,99.90
2018-05-02T00:15:23.819Z,99.90
2018-05-02T00:17:58.526Z,99.90
2018-05-02T00:20:33.663Z,99.90
2018-05-02T00:23:08.369Z,99.90
2018-05-02T00:25:43.638Z,99.90
2018-05-02T00:28:18.432Z,99.90
2018-05-02T00:30:53.811Z,99.90
2018-05-02T00:33:28.478Z,99.90
2018-05-02T00:36:03.895Z,99.90
2018-05-02T00:38:38.504Z,99.90
2018-05-02T00:41:14.062Z,99.90
2018-05-02T00:43:49.521Z,99.90
2018-05-02T00:46:25.770Z,99.90
2018-05-02T00:49:11.682Z,99.90
2018-05-02T00:51:46.224Z,99.90
2018-05-02T00:54:20.848Z,99.90
2018-05-02T00:56:55.442Z,99.90
2018-05-02T00:59:30.150Z,99.90
2018-05-02T01:02:04.676Z,99.90
2018-05-02T01:04:40.019Z,99.90
2018-05-02T01:07:14.767Z,99.90
2018-05-02T01:09:49.362Z,99.90
2018-05-02T01:12:24.093Z,99.90
2018-05-02T01:14:58.700Z,99.90
2018-05-02T01:17:33.450Z,99.90
2018-05-02T01:20:08.812Z,99.90
2018-05-02T01:22:43.467Z,99.90
2018-05-02T01:25:18.737Z,99.90
2018-05-02T01:27:53.473Z,99.90
2018-05-02T01:30:28.234Z,99.90
2018-05-02T01:33:02.817Z,99.90
2018-05-02T01:35:38.244Z,99.90
2018-05-02T01:38:13.463Z,99.90
2018-05-02T01:40:48.845Z,99.90
2018-05-02T01:43:24.453Z,99.90
2018-05-02T01:45:59.942Z,99.90
2018-05-02T01:48:34.112Z,99.90
2018-05-02T01:51:08.825Z,99.90
2018-05-02T01:53:43.371Z,99.90
2018-05-02T01:56:17.910Z,99.90
2018-05-02T01:58:52.563Z,99.90
2018-05-02T02:01:27.207Z,99.90
2018-05-02T02:04:01.816Z,99.90
2018-05-02T02:06:36.458Z,99.90
2018-05-02T02:09:11.151Z,99.90
2018-05-02T02:11:46.186Z,99.90
2018-05-02T02:14:20.666Z,99.90
2018-05-02T02:16:55.284Z,99.90
2018-05-02T02:19:30.118Z,99.90
2018-05-02T02:22:04.591Z,99.90
2018-05-02T02:24:39.231Z,99.90
2018-05-02T02:27:13.909Z,99.90
2018-05-02T02:29:49.251Z,99.90
2018-05-02T02:32:23.841Z,99.90
2018-05-02T02:34:58.434Z,99.90
2018-05-02T02:37:33.102Z,99.90
2018-05-02T02:40:07.743Z,99.90
2018-05-02T02:42:42.446Z,99.90
2018-05-02T02:45:17.030Z,99.90
2018-05-02T02:47:51.702Z,99.90
2018-05-02T02:50:26.223Z,99.90
2018-05-02T02:53:00.933Z,99.90
2018-05-02T02:55:35.482Z,99.90
2018-05-02T02:58:10.182Z,99.90
2018-05-02T03:00:44.693Z,99.90
2018-05-02T03:03:19.419Z,99.90
2018-05-02T03:05:54.154Z,99.90
2018-05-02T03:08:28.779Z,99.90
2018-05-02T03:11:04.289Z,99.90
2018-05-02T03:13:39.043Z,99.90
2018-05-02T03:16:13.685Z,99.90
2018-05-02T03:18:49.081Z,99.90
2018-05-02T03:21:24.322Z,99.90
2018-05-02T03:23:58.974Z,99.90
2018-05-02T03:26:33.679Z,99.90
2018-05-02T03:29:08.563Z,99.90
2018-05-02T03:31:43.350Z,99.90
2018-05-02T03:34:18.252Z,99.90
2018-05-02T03:36:52.907Z,99.90
2018-05-02T03:39:27.605Z,99.90
2018-05-02T03:42:02.173Z,99.90
2018-05-02T03:44:36.887Z,99.90
2018-05-02T03:47:11.498Z,99.90
2018-05-02T03:49:46.139Z,99.90
2018-05-02T03:52:20.446Z,99.90
2018-05-02T03:54:55.174Z,99.90
2018-05-02T03:57:29.768Z,99.90
2018-05-02T04:00:16.206Z,99.90
2018-05-02T04:03:02.239Z,99.90
2018-05-02T04:05:48.050Z,99.90
2018-05-02T04:08:22.811Z,99.90
2018-05-02T04:10:58.147Z,99.90
2018-05-02T04:13:36.695Z,99.90
2018-05-02T04:16:11.479Z,99.90
2018-05-02T04:18:47.029Z,99.90
2018-05-02T04:21:21.891Z,99.90
2018-05-02T04:23:56.625Z,99.90
2018-05-02T04:26:31.338Z,99.90
2018-05-02T04:29:06.327Z,99.90
2018-05-02T04:31:40.989Z,99.90
2018-05-02T04:34:16.322Z,99.90
2018-05-02T04:36:51.170Z,99.90
2018-05-02T04:39:25.967Z,99.90
2018-05-02T04:42:00.758Z,99.90
2018-05-02T04:44:35.404Z,99.90
2018-05-02T04:47:09.961Z,99.90
2018-05-02T04:49:42.300Z,99.90
2018-05-02T04:52:11.360Z,99.90
2018-05-02T04:54:40.444Z,99.90
2018-05-02T04:57:09.567Z,99.90
2018-05-02T04:59:38.728Z,99.90
2018-05-02T05:02:08.059Z,99.90
2018-05-02T05:04:37.249Z,99.90
2018-05-02T05:07:06.634Z,99.90
2018-05-02T05:09:35.914Z,99.90
2018-05-02T05:12:06.565Z,99.90
2018-05-02T05:14:35.886Z,99.90
2018-05-02T05:17:04.963Z,99.90
2018-05-02T05:19:34.180Z,99.90
2018-05-02T05:22:03.349Z,99.90
2018-05-02T05:24:32.575Z,99.90
2018-05-02T05:27:01.508Z,99.90
2018-05-02T05:29:30.638Z,99.90
2018-05-02T05:31:59.854Z,99.90
2018-05-02T05:34:31.157Z,99.90
2018-05-02T05:37:00.279Z,99.90
2018-05-02T05:39:29.495Z,99.90
2018-05-02T05:41:58.584Z,99.90
2018-05-02T05:44:29.285Z,99.90
2018-05-02T05:47:03.706Z,99.90
2018-05-02T05:49:38.424Z,99.90
2018-05-02T05:52:13.111Z,99.90
2018-05-02T05:54:47.653Z,99.90
2018-05-02T05:57:22.257Z,99.90
2018-05-02T05:59:56.971Z,99.90
2018-05-02T06:02:36.237Z,99.90
2018-05-02T06:05:10.927Z,99.90
2018-05-02T06:07:41.822Z,99.90
2018-05-02T06:10:10.931Z,99.90
2018-05-02T06:12:39.899Z,99.90
2018-05-02T06:15:09.007Z,99.90
2018-05-02T06:17:38.455Z,99.90
2018-05-02T06:20:07.509Z,99.90
2018-05-02T06:22:36.632Z,99.90
2018-05-02T06:25:05.486Z,99.90
2018-05-02T06:27:40.117Z,99.90
2018-05-02T06:30:09.118Z,99.90
2018-05-02T06:32:38.259Z,99.90
2018-05-02T06:35:08.110Z,99.90
2018-05-02T06:37:43.591Z,99.90
2018-05-02T06:40:18.423Z,99.90
2018-05-02T06:42:53.114Z,99.90
2018-05-02T06:45:28.559Z,99.90
2018-05-02T06:48:03.910Z,99.90
2018-05-02T06:50:38.184Z,99.90
2018-05-02T06:53:13.583Z,99.90
2018-05-02T06:55:42.536Z,99.90
2018-05-02T06:58:12.322Z,99.90
2018-05-02T07:00:41.257Z,99.90
2018-05-02T07:03:10.985Z,99.90
2018-05-02T07:05:39.918Z,99.90
2018-05-02T07:08:09.656Z,99.90
2018-05-02T07:10:38.630Z,99.90
2018-05-02T07:13:08.570Z,99.90
2018-05-02T07:15:44.826Z,99.90
2018-05-02T07:18:20.287Z,99.90
2018-05-02T07:20:54.928Z,99.90
2018-05-02T07:23:29.726Z,99.90
2018-05-02T07:26:04.358Z,99.90
2018-05-02T07:28:38.942Z,99.90
2018-05-02T07:31:13.529Z,99.90
2018-05-02T07:33:48.138Z,99.90
2018-05-02T07:36:22.809Z,99.90
2018-05-02T07:38:58.174Z,99.90
2018-05-02T07:41:33.014Z,99.90
2018-05-02T07:44:07.535Z,99.90
2018-05-02T07:46:42.534Z,99.90
2018-05-02T07:49:17.855Z,99.90
2018-05-02T07:51:52.565Z,99.90
2018-05-02T07:54:27.363Z,99.90
2018-05-02T07:57:01.958Z,99.90
2018-05-02T07:59:37.530Z,99.90
2018-05-02T08:02:12.381Z,99.90
2018-05-02T08:04:47.727Z,99.90
2018-05-02T08:07:23.058Z,99.90
2018-05-02T08:09:57.616Z,99.90
2018-05-02T08:12:32.526Z,99.90
2018-05-02T08:15:08.027Z,99.90
2018-05-02T08:17:42.797Z,99.90
2018-05-02T08:20:17.526Z,99.90
2018-05-02T08:22:52.132Z,99.90
2018-05-02T08:25:26.902Z,99.90
2018-05-02T08:28:01.496Z,99.90
2018-05-02T08:30:36.258Z,99.90
2018-05-02T08:33:10.819Z,99.90
2018-05-02T08:35:45.422Z,99.90
2018-05-02T08:38:21.064Z,99.90
2018-05-02T08:40:56.464Z,99.90
2018-05-02T08:43:31.493Z,99.90
2018-05-02T08:46:06.930Z,99.90
2018-05-02T08:48:41.701Z,99.90
2018-05-02T08:51:16.397Z,99.90
2018-05-02T08:53:46.010Z,99.90
2018-05-02T08:56:20.627Z,99.90
2018-05-02T08:58:55.214Z,99.90
2018-05-02T09:01:29.869Z,99.90
2018-05-02T09:04:04.598Z,99.90
2018-05-02T09:06:39.355Z,99.90
2018-05-02T09:09:14.773Z,99.90
2018-05-02T09:11:49.595Z,99.90
2018-05-02T09:14:18.742Z,99.90
2018-05-02T09:16:53.471Z,99.90
2018-05-02T09:19:28.026Z,99.90
2018-05-02T09:22:02.705Z,99.90
2018-05-02T09:24:37.699Z,99.90
2018-05-02T09:27:12.376Z,99.90
2018-05-02T09:29:47.165Z,99.90
2018-05-02T09:32:21.689Z,99.90
2018-05-02T09:34:56.321Z,99.90
2018-05-02T09:37:30.928Z,99.90
2018-05-02T09:40:06.366Z,99.90
2018-05-02T09:42:41.130Z,99.90
2018-05-02T09:45:15.839Z,99.90
2018-05-02T09:47:51.998Z,99.90
2018-05-02T09:50:26.865Z,99.90
2018-05-02T09:53:02.172Z,99.90
2018-05-02T09:55:37.145Z,99.90
2018-05-02T09:58:12.768Z,99.90
2018-05-02T10:00:47.642Z,99.90
2018-05-02T10:03:22.214Z,99.90
2018-05-02T10:05:56.786Z,99.90
2018-05-02T10:08:31.554Z,99.90
2018-05-02T10:11:06.198Z,99.90
2018-05-02T10:13:40.854Z,99.90
2018-05-02T10:16:15.408Z,99.90
2018-05-02T10:18:49.978Z,99.90
2018-05-02T10:21:24.833Z,99.90
2018-05-02T10:23:59.480Z,99.90
2018-05-02T10:26:33.923Z,99.90
2018-05-02T10:29:08.552Z,99.90
2018-05-02T10:31:43.897Z,99.90
2018-05-02T10:34:19.222Z,99.90
2018-05-02T10:36:53.975Z,99.90
2018-05-02T10:39:28.588Z,99.90
2018-05-02T10:42:00.233Z,99.90
2018-05-02T10:44:35.007Z,99.90
2018-05-02T10:47:09.670Z,99.90
2018-05-02T10:49:44.703Z,99.90
2018-05-02T10:52:19.831Z,99.90
2018-05-02T10:54:54.405Z,99.90
2018-05-02T10:57:29.703Z,99.90
2018-05-02T11:00:03.842Z,99.90
2018-05-02T11:02:39.179Z,99.90
2018-05-02T11:05:14.517Z,98.60
2018-05-02T11:07:43.928Z,98.60
2018-05-02T11:10:18.439Z,98.30
2018-05-02T11:12:52.980Z,98.10
2018-05-02T11:15:27.571Z,97.20
2018-05-02T11:18:02.222Z,96.60
2018-05-02T11:20:36.883Z,97.00
2018-05-02T11:23:12.313Z,94.20
2018-05-02T11:25:47.182Z,94.20
2018-05-02T11:28:21.908Z,94.40
2018-05-02T11:30:57.375Z,94.20
2018-05-02T11:33:32.060Z,94.20
2018-05-02T11:36:06.768Z,93.90
2018-05-02T11:38:41.404Z,94.90
2018-05-02T11:41:16.301Z,95.00
2018-05-02T11:43:50.884Z,92.90
2018-05-02T11:46:25.106Z,92.50
2018-05-02T11:48:59.649Z,92.00
2018-05-02T11:51:34.222Z,91.90
2018-05-02T11:54:08.765Z,92.30
2018-05-02T11:56:43.577Z,91.50
2018-05-02T11:59:15.206Z,93.10
2018-05-02T12:01:44.429Z,93.10
2018-05-02T12:04:13.348Z,92.20
2018-05-02T12:06:42.318Z,90.90
2018-05-02T12:09:11.392Z,91.10
2018-05-02T12:11:40.386Z,90.70
2018-05-02T12:14:09.318Z,90.30
2018-05-02T12:16:38.265Z,90.10
2018-05-02T12:19:07.239Z,88.90
2018-05-02T12:21:38.453Z,86.10
2018-05-02T12:24:07.478Z,86.10
2018-05-02T12:26:36.545Z,87.40
2018-05-02T12:29:05.247Z,88.70
2018-05-02T12:31:34.388Z,89.00
2018-05-02T12:34:03.538Z,87.40
2018-05-02T12:36:32.652Z,86.80
2018-05-02T12:39:01.642Z,88.30
2018-05-02T12:41:30.619Z,87.70
2018-05-02T12:44:02.149Z,84.80
2018-05-02T12:46:31.282Z,84.80
2018-05-02T12:49:00.260Z,83.20
2018-05-02T12:51:30.219Z,82.60
2018-05-02T12:53:59.953Z,81.80
2018-05-02T12:56:28.990Z,81.20
2018-05-02T12:58:58.888Z,83.30
2018-05-02T13:01:33.566Z,82.70
2018-05-02T13:04:08.955Z,84.70
2018-05-02T13:06:43.630Z,84.60
2018-05-02T13:09:12.561Z,83.20
2018-05-02T13:11:41.475Z,79.30
2018-05-02T13:14:10.763Z,77.60
2018-05-02T13:16:40.014Z,77.80
2018-05-02T13:19:09.307Z,76.30
2018-05-02T13:21:38.286Z,77.70
2018-05-02T13:24:08.774Z,77.00
2018-05-02T13:26:38.225Z,77.10
2018-05-02T13:29:07.207Z,73.80
2018-05-02T13:31:36.531Z,73.40
2018-05-02T13:34:07.239Z,74.20
2018-05-02T13:36:42.635Z,73.50
2018-05-02T13:39:17.174Z,72.70
2018-05-02T13:41:51.717Z,70.50
2018-05-02T13:44:26.408Z,70.60
2018-05-02T13:47:01.503Z,71.10
2018-05-02T13:49:37.007Z,71.10
2018-05-02T13:52:11.788Z,70.90
2018-05-02T13:54:40.757Z,70.90
2018-05-02T13:57:15.326Z,70.70
2018-05-02T13:59:49.880Z,70.20
2018-05-02T14:02:25.213Z,67.40
2018-05-02T14:05:00.177Z,67.30
2018-05-02T14:07:35.024Z,69.30
2018-05-02T14:10:09.809Z,68.10
2018-05-02T14:12:44.430Z,70.10
2018-05-02T14:15:18.869Z,70.90
2018-05-02T14:17:53.431Z,69.10
2018-05-02T14:20:28.127Z,67.10
2018-05-02T14:23:03.429Z,64.70
2018-05-02T14:25:38.221Z,64.60
2018-05-02T14:28:13.822Z,65.40
2018-05-02T14:30:48.542Z,65.40
2018-05-02T14:33:23.213Z,66.40
2018-05-02T14:35:57.760Z,66.20
2018-05-02T14:38:32.446Z,66.60
2018-05-02T14:41:07.079Z,65.70
2018-05-02T14:43:41.722Z,70.60
2018-05-02T14:46:16.571Z,69.70
2018-05-02T14:48:51.491Z,68.10
2018-05-02T14:51:27.580Z,65.60
2018-05-02T14:54:02.743Z,65.70
2018-05-02T14:56:37.461Z,65.90
2018-05-02T14:59:12.209Z,67.50
2018-05-02T15:01:46.884Z,67.60
2018-05-02T15:04:21.681Z,68.20
2018-05-02T15:06:56.383Z,63.70
2018-05-02T15:09:31.002Z,64.90
2018-05-02T15:12:05.573Z,65.30
2018-05-02T15:14:40.316Z,64.50
2018-05-02T15:17:14.888Z,62.20
2018-05-02T15:19:49.534Z,62.30
2018-05-02T15:22:24.893Z,60.80
2018-05-02T15:25:00.265Z,60.00
2018-05-02T15:27:34.908Z,59.90
2018-05-02T15:30:09.298Z,60.40
2018-05-02T15:32:44.746Z,59.50
2018-05-02T15:35:19.467Z,59.50
2018-05-02T15:37:54.125Z,58.80
2018-05-02T15:40:28.746Z,59.20
2018-05-02T15:43:04.507Z,58.10
2018-05-02T15:45:39.231Z,57.70
2018-05-02T15:48:13.925Z,58.10
2018-05-02T15:50:49.329Z,58.20
2018-05-02T15:53:24.033Z,58.10
2018-05-02T15:55:58.918Z,57.80
2018-05-02T15:58:34.451Z,57.00
2018-05-02T16:01:03.976Z,57.00
2018-05-02T16:03:38.548Z,57.00
2018-05-02T16:06:13.144Z,55.80
2018-05-02T16:08:48.536Z,56.00
2018-05-02T16:11:23.106Z,56.00
2018-05-02T16:13:57.733Z,56.50
2018-05-02T16:16:32.434Z,56.50
2018-05-02T16:19:06.806Z,57.10
2018-05-02T16:21:36.021Z,57.10
2018-05-02T16:24:10.580Z,56.30
2018-05-02T16:26:45.210Z,56.10
2018-05-02T16:29:19.989Z,55.70
2018-05-02T16:31:54.774Z,55.90
2018-05-02T16:34:29.320Z,55.60
2018-05-02T16:37:04.202Z,55.80
2018-05-02T16:39:38.901Z,55.90
2018-05-02T16:42:13.545Z,56.10
2018-05-02T16:44:48.394Z,55.80
2018-05-02T16:47:23.771Z,56.20
2018-05-02T16:49:58.323Z,56.10
2018-05-02T16:52:32.463Z,55.80
2018-05-02T16:55:07.106Z,55.80
2018-05-02T16:57:41.856Z,55.50
2018-05-02T17:00:16.379Z,55.20
2018-05-02T17:02:51.094Z,55.30
2018-05-02T17:05:25.698Z,55.80
2018-05-02T17:08:00.396Z,56.40
2018-05-02T17:10:35.134Z,56.60
2018-05-02T17:13:09.685Z,56.80
2018-05-02T17:15:44.473Z,55.90
2018-05-02T17:18:13.876Z,56.20
2018-05-02T17:20:48.659Z,55.80
2018-05-02T17:23:24.182Z,56.40
2018-05-02T17:25:58.973Z,56.40
2018-05-02T17:28:33.525Z,56.00
2018-05-02T17:31:08.395Z,56.40
2018-05-02T17:33:43.976Z,56.20
2018-05-02T17:36:18.841Z,56.10
2018-05-02T17:38:49.000Z,56.70
2018-05-02T17:41:23.607Z,56.50
2018-05-02T17:43:59.285Z,56.80
2018-05-02T17:46:34.893Z,57.60
2018-05-02T17:49:09.651Z,57.20
2018-05-02T17:51:44.357Z,57.60
2018-05-02T17:54:18.953Z,57.20
2018-05-02T17:56:53.848Z,57.10
2018-05-02T17:59:22.993Z,57.10
2018-05-02T18:01:57.378Z,57.30
2018-05-02T18:04:31.953Z,57.40
2018-05-02T18:07:06.632Z,57.40
2018-05-02T18:09:41.279Z,57.60
2018-05-02T18:12:15.836Z,58.00
2018-05-02T18:14:50.487Z,58.30
2018-05-02T18:17:24.978Z,58.50
2018-05-02T18:19:59.911Z,58.20
2018-05-02T18:22:34.668Z,58.70
2018-05-02T18:25:10.234Z,58.30
2018-05-02T18:27:44.945Z,58.80
2018-05-02T18:30:19.565Z,58.70
2018-05-02T18:32:48.682Z,59.10
2018-05-02T18:35:17.909Z,59.50
2018-05-02T18:37:47.085Z,60.20
2018-05-02T18:40:16.099Z,59.70
2018-05-02T18:42:45.228Z,59.90
2018-05-02T18:45:16.242Z,60.20
2018-05-02T18:47:45.983Z,61.10
2018-05-02T18:50:15.969Z,61.70
2018-05-02T18:52:44.941Z,60.80
2018-05-02T18:55:15.365Z,61.40
2018-05-02T18:57:44.493Z,61.40
2018-05-02T19:00:14.743Z,61.60
2018-05-02T19:02:43.845Z,61.60
2018-05-02T19:05:19.451Z,61.90
2018-05-02T19:07:54.802Z,62.10
2018-05-02T19:10:30.216Z,62.40
2018-05-02T19:13:01.828Z,62.40
2018-05-02T19:15:37.373Z,63.10
2018-05-02T19:18:17.439Z,63.10
2018-05-02T19:20:52.740Z,64.00
2018-05-02T19:23:27.495Z,64.00
2018-05-02T19:26:07.511Z,64.30
2018-05-02T19:28:42.212Z,65.00
2018-05-02T19:31:23.101Z,65.80
2018-05-02T19:33:57.971Z,65.80
2018-05-02T19:36:33.599Z,66.50
2018-05-02T19:39:02.552Z,66.50
2018-05-02T19:41:36.979Z,66.90
2018-05-02T19:44:06.729Z,68.10
2018-05-02T19:46:36.774Z,68.10
2018-05-02T19:49:06.676Z,68.90
2018-05-02T19:51:41.348Z,68.90
2018-05-02T19:54:10.407Z,69.50
2018-05-02T19:56:39.669Z,70.20
2018-05-02T19:59:09.942Z,70.20
2018-05-02T20:01:44.434Z,71.10
2018-05-02T20:04:13.537Z,72.50
2018-05-02T20:06:42.496Z,71.80
2018-05-02T20:09:16.991Z,72.90
2018-05-02T20:11:51.515Z,73.30
2018-05-02T20:14:20.558Z,74.50
2018-05-02T20:16:49.292Z,75.30
2018-05-02T20:19:19.735Z,76.10
2018-05-02T20:21:48.921Z,76.10
2018-05-02T20:24:18.852Z,77.40
2018-05-02T20:26:48.080Z,77.30
2018-05-02T20:29:18.923Z,78.90
2018-05-02T20:31:48.074Z,79.00
2018-05-02T20:34:17.637Z,79.90
2018-05-02T20:36:47.655Z,81.80
2018-05-02T20:39:17.267Z,81.80
2018-05-02T20:41:46.292Z,82.80
2018-05-02T20:44:17.160Z,83.60
2018-05-02T20:46:46.371Z,83.60
2018-05-02T20:49:15.831Z,84.00
2018-05-02T20:51:50.544Z,85.20
2018-05-02T20:54:25.306Z,86.00
2018-05-02T20:57:00.949Z,88.20
2018-05-02T20:59:35.697Z,88.20
2018-05-02T21:02:10.211Z,89.40
2018-05-02T21:04:44.919Z,90.30
2018-05-02T21:07:14.775Z,91.30
2018-05-02T21:09:50.288Z,91.60
2018-05-02T21:12:25.710Z,91.60
2018-05-02T21:15:00.442Z,91.90
2018-05-02T21:17:35.214Z,92.20
2018-05-02T21:20:09.842Z,91.70
2018-05-02T21:22:44.534Z,92.10
2018-05-02T21:25:19.617Z,92.50
2018-05-02T21:27:55.116Z,93.30
2018-05-02T21:30:29.807Z,93.30
2018-05-02T21:33:04.585Z,93.80
2018-05-02T21:35:39.167Z,94.40
2018-05-02T21:38:13.719Z,94.90
2018-05-02T21:40:48.354Z,95.30
2018-05-02T21:43:23.255Z,95.80
2018-05-02T21:45:57.880Z,95.70
2018-05-02T21:48:32.654Z,96.10
2018-05-02T21:51:07.154Z,96.60
2018-05-02T21:53:41.907Z,97.00
2018-05-02T21:56:16.473Z,97.30
2018-05-02T21:58:51.225Z,97.80
2018-05-02T22:01:25.836Z,98.50
2018-05-02T22:04:00.493Z,98.90
2018-05-02T22:06:35.050Z,99.40
2018-05-02T22:09:09.765Z,99.60
2018-05-02T22:11:44.345Z,99.90
2018-05-02T22:14:19.246Z,99.90
2018-05-02T22:16:53.849Z,99.90
2018-05-02T22:19:28.500Z,99.90
2018-05-02T22:22:03.099Z,99.90
2018-05-02T22:24:38.592Z,99.90
2018-05-02T22:27:13.292Z,99.90
2018-05-02T22:29:47.824Z,99.90
2018-05-02T22:32:22.764Z,99.90
2018-05-02T22:34:57.357Z,99.90
2018-05-02T22:37:31.996Z,99.90
2018-05-02T22:40:06.627Z,99.90
2018-05-02T22:42:41.215Z,99.90
2018-05-02T22:45:15.789Z,99.90
2018-05-02T22:47:50.499Z,99.90
2018-05-02T22:50:25.090Z,99.90
2018-05-02T22:52:59.863Z,99.90
2018-05-02T22:55:35.459Z,99.90
2018-05-02T22:58:10.036Z,99.90
2018-05-02T23:00:45.339Z,99.90
2018-05-02T23:03:20.132Z,99.90
2018-05-02T23:05:55.342Z,99.90
2018-05-02T23:08:30.012Z,99.90
2018-05-02T23:11:05.401Z,99.90
2018-05-02T23:13:40.177Z,99.90
2018-05-02T23:16:14.943Z,99.90
2018-05-02T23:18:49.861Z,99.90
2018-05-02T23:21:19.800Z,99.90
2018-05-02T23:23:55.226Z,99.90
2018-05-02T23:26:30.726Z,99.90
2018-05-02T23:29:05.536Z,99.90
2018-05-02T23:31:40.122Z,99.90
2018-05-02T23:34:14.884Z,99.90
2018-05-02T23:36:49.662Z,99.90
2018-05-02T23:39:27.527Z,99.90
2018-05-02T23:42:01.391Z,99.90
2018-05-02T23:44:36.036Z,99.90
2018-05-02T23:47:10.623Z,99.90
2018-05-02T23:49:45.412Z,99.90
2018-05-02T23:52:20.181Z,99.90
2018-05-02T23:54:54.749Z,99.90
2018-05-02T23:57:29.466Z,99.90
